createdAt,value
2017-07-17T00:01:33.345Z,17.20
2017-07-17T00:04:01.663Z,17.10
2017-07-17T00:06:29.209Z,17.10
2017-07-17T00:08:56.810Z,17.10
2017-07-17T00:11:24.364Z,17.00
2017-07-17T00:13:51.922Z,17.00
2017-07-17T00:16:19.486Z,17.00
2017-07-17T00:18:47.027Z,17.00
2017-07-17T00:21:14.610Z,16.90
2017-07-17T00:23:42.163Z,16.90
2017-07-17T00:26:09.701Z,16.90
2017-07-17T00:28:37.279Z,16.80
2017-07-17T00:31:04.831Z,16.80
2017-07-17T00:33:32.413Z,16.70
2017-07-17T00:35:59.967Z,16.80
2017-07-17T00:38:27.515Z,16.70
2017-07-17T00:40:55.094Z,16.80
2017-07-17T00:43:23.406Z,16.80
2017-07-17T00:45:51.153Z,16.80
2017-07-17T00:48:18.738Z,16.80
2017-07-17T00:50:46.394Z,16.70
2017-07-17T00:53:13.987Z,16.60
2017-07-17T00:55:41.538Z,16.60
2017-07-17T00:58:09.174Z,16.60
2017-07-17T01:00:36.769Z,16.50
2017-07-17T01:03:04.323Z,16.50
2017-07-17T01:05:31.930Z,16.40
2017-07-17T01:07:59.478Z,16.50
2017-07-17T01:10:27.022Z,16.40
2017-07-17T01:12:55.398Z,16.40
2017-07-17T01:15:23.734Z,16.30
2017-07-17T01:17:51.477Z,16.30
2017-07-17T01:20:19.065Z,16.30
2017-07-17T01:22:46.647Z,16.30
2017-07-17T01:25:14.974Z,16.20
2017-07-17T01:27:42.565Z,16.20
2017-07-17T01:30:10.234Z,16.20
2017-07-17T01:32:37.809Z,16.20
2017-07-17T01:35:06.119Z,16.10
2017-07-17T01:37:33.666Z,16.10
2017-07-17T01:40:01.253Z,16.10
2017-07-17T01:42:28.792Z,16.10
2017-07-17T01:44:56.340Z,16.10
2017-07-17T01:47:23.928Z,16.00
2017-07-17T01:49:51.476Z,16.00
2017-07-17T01:52:19.067Z,16.00
2017-07-17T01:54:46.623Z,16.00
2017-07-17T01:57:14.184Z,15.90
2017-07-17T01:59:41.828Z,15.90
2017-07-17T02:02:09.391Z,15.90
2017-07-17T02:04:37.018Z,16.00
2017-07-17T02:07:04.565Z,15.90
2017-07-17T02:09:32.111Z,15.90
2017-07-17T02:11:59.724Z,15.90
2017-07-17T02:14:27.264Z,15.90
2017-07-17T02:16:54.853Z,15.80
2017-07-17T02:19:22.442Z,15.70
2017-07-17T02:21:50.082Z,15.80
2017-07-17T02:24:17.663Z,15.80
2017-07-17T02:26:45.216Z,15.80
2017-07-17T02:29:13.579Z,15.90
2017-07-17T02:31:41.885Z,15.90
2017-07-17T02:34:09.438Z,15.90
2017-07-17T02:36:37.035Z,15.90
2017-07-17T02:39:04.587Z,15.90
2017-07-17T02:41:32.140Z,15.90
2017-07-17T02:43:59.730Z,15.80
2017-07-17T02:46:27.276Z,15.80
2017-07-17T02:48:54.869Z,15.80
2017-07-17T02:51:23.217Z,15.70
2017-07-17T02:53:50.767Z,15.70
2017-07-17T02:56:18.360Z,15.70
2017-07-17T02:58:46.765Z,15.70
2017-07-17T03:01:14.305Z,15.70
2017-07-17T03:03:41.972Z,15.90
2017-07-17T03:06:09.535Z,15.90
2017-07-17T03:08:37.082Z,15.90
2017-07-17T03:11:05.447Z,15.90
2017-07-17T03:13:33.757Z,15.90
2017-07-17T03:16:01.310Z,15.90
2017-07-17T03:18:29.002Z,15.80
2017-07-17T03:20:56.592Z,15.80
2017-07-17T03:23:24.173Z,15.80
2017-07-17T03:25:51.741Z,15.80
2017-07-17T03:28:19.306Z,15.90
2017-07-17T03:30:47.024Z,15.90
2017-07-17T03:33:14.584Z,15.90
2017-07-17T03:35:42.144Z,15.80
2017-07-17T03:38:09.743Z,15.80
2017-07-17T03:40:37.289Z,15.80
2017-07-17T03:43:04.854Z,15.80
2017-07-17T03:45:32.422Z,15.80
2017-07-17T03:47:59.973Z,15.70
2017-07-17T03:50:27.561Z,15.70
2017-07-17T03:52:55.193Z,15.70
2017-07-17T03:55:22.736Z,15.60
2017-07-17T03:57:50.402Z,15.60
2017-07-17T04:00:17.957Z,15.60
2017-07-17T04:02:46.312Z,15.60
2017-07-17T04:05:13.858Z,15.60
2017-07-17T04:07:41.409Z,15.60
2017-07-17T04:10:08.987Z,15.60
2017-07-17T04:12:36.526Z,15.60
2017-07-17T04:15:04.128Z,15.70
2017-07-17T04:17:31.678Z,15.70
2017-07-17T04:20:00.035Z,15.90
2017-07-17T04:22:27.644Z,15.90
2017-07-17T04:24:55.251Z,16.00
2017-07-17T04:27:22.810Z,16.10
2017-07-17T04:29:50.473Z,16.10
2017-07-17T04:32:18.043Z,16.20
2017-07-17T04:34:46.361Z,16.40
2017-07-17T04:37:13.949Z,16.30
2017-07-17T04:39:41.499Z,16.40
2017-07-17T04:42:09.044Z,16.50
2017-07-17T04:44:36.626Z,16.60
2017-07-17T04:47:04.220Z,16.60
2017-07-17T04:49:32.541Z,16.80
2017-07-17T04:52:00.090Z,16.80
2017-07-17T04:54:27.666Z,16.90
2017-07-17T04:56:55.210Z,16.90
2017-07-17T04:59:22.746Z,17.00
2017-07-17T05:01:50.326Z,17.00
2017-07-17T05:04:17.867Z,17.00
2017-07-17T05:06:45.446Z,17.00
2017-07-17T05:09:12.989Z,17.00
2017-07-17T05:11:40.547Z,17.10
2017-07-17T05:14:08.197Z,17.10
2017-07-17T05:16:35.751Z,17.20
2017-07-17T05:19:03.296Z,17.20
2017-07-17T05:21:31.790Z,17.40
2017-07-17T05:23:59.347Z,17.40
2017-07-17T05:26:26.924Z,17.50
2017-07-17T05:28:54.501Z,17.60
2017-07-17T05:31:22.050Z,17.70
2017-07-17T05:33:49.650Z,17.80
2017-07-17T05:36:17.994Z,17.90
2017-07-17T05:38:45.566Z,17.90
2017-07-17T05:41:13.158Z,18.10
2017-07-17T05:43:41.483Z,18.10
2017-07-17T05:46:09.036Z,18.10
2017-07-17T05:48:36.627Z,18.10
2017-07-17T05:51:04.170Z,18.10
2017-07-17T05:53:31.757Z,18.10
2017-07-17T05:55:59.366Z,18.10
2017-07-17T05:58:26.905Z,18.10
2017-07-17T06:00:54.441Z,18.10
2017-07-17T06:03:22.783Z,18.20
2017-07-17T06:05:50.364Z,18.10
2017-07-17T06:08:17.915Z,18.20
2017-07-17T06:10:45.490Z,18.30
2017-07-17T06:13:13.843Z,18.50
2017-07-17T06:15:41.389Z,18.50
2017-07-17T06:18:09.056Z,18.50
2017-07-17T06:20:36.615Z,18.60
2017-07-17T06:23:04.166Z,18.70
2017-07-17T06:25:31.806Z,18.60
2017-07-17T06:27:59.357Z,18.60
2017-07-17T06:30:27.054Z,18.80
2017-07-17T06:32:54.605Z,19.00
2017-07-17T06:35:22.178Z,19.00
2017-07-17T06:37:49.786Z,19.20
2017-07-17T06:40:17.342Z,19.30
2017-07-17T06:42:44.914Z,19.40
2017-07-17T06:45:12.493Z,19.60
2017-07-17T06:47:40.048Z,19.90
2017-07-17T06:50:07.627Z,21.30
2017-07-17T06:52:35.167Z,22.60
2017-07-17T06:55:02.734Z,23.90
2017-07-17T06:57:30.317Z,25.20
2017-07-17T06:59:58.625Z,28.70
2017-07-17T07:02:26.227Z,28.60
2017-07-17T07:04:53.790Z,29.80
2017-07-17T07:07:21.353Z,31.30
2017-07-17T07:09:48.915Z,31.70
2017-07-17T07:12:16.474Z,33.10
2017-07-17T07:14:44.059Z,32.20
2017-07-17T07:17:11.613Z,27.00
2017-07-17T07:19:39.208Z,25.70
2017-07-17T07:22:06.797Z,26.50
2017-07-17T07:24:34.351Z,25.80
2017-07-17T07:27:01.892Z,25.30
2017-07-17T07:29:29.473Z,25.90
2017-07-17T07:31:57.057Z,26.80
2017-07-17T07:34:25.483Z,27.50
2017-07-17T07:36:53.217Z,27.40
2017-07-17T07:39:20.788Z,27.90
2017-07-17T07:41:48.500Z,28.40
2017-07-17T07:44:16.028Z,28.80
2017-07-17T07:46:43.569Z,29.10
2017-07-17T07:49:11.248Z,28.40
2017-07-17T07:51:38.795Z,28.50
2017-07-17T07:54:06.387Z,28.40
2017-07-17T07:56:33.923Z,27.50
2017-07-17T07:59:01.473Z,28.80
2017-07-17T08:01:29.053Z,29.00
2017-07-17T08:03:56.600Z,29.60
2017-07-17T08:06:24.226Z,29.90
2017-07-17T08:08:51.862Z,29.30
2017-07-17T08:11:20.209Z,31.60
2017-07-17T08:13:47.971Z,31.60
2017-07-17T08:16:15.509Z,31.20
2017-07-17T08:18:43.079Z,31.30
2017-07-17T08:21:10.654Z,31.70
2017-07-17T08:23:38.207Z,31.00
2017-07-17T08:26:05.753Z,32.30
2017-07-17T08:28:33.382Z,32.40
2017-07-17T08:31:00.926Z,32.50
2017-07-17T08:33:28.471Z,32.80
2017-07-17T08:35:56.788Z,32.00
2017-07-17T08:38:24.357Z,32.00
2017-07-17T08:40:51.902Z,31.20
2017-07-17T08:43:19.487Z,31.50
2017-07-17T08:45:47.038Z,32.70
2017-07-17T08:48:14.584Z,33.60
2017-07-17T08:50:42.177Z,34.20
2017-07-17T08:53:10.501Z,32.70
2017-07-17T08:55:38.077Z,32.70
2017-07-17T08:58:05.649Z,33.60
2017-07-17T09:00:33.271Z,30.20
2017-07-17T09:03:00.854Z,29.30
2017-07-17T09:05:28.411Z,31.30
2017-07-17T09:07:56.089Z,33.00
2017-07-17T09:10:23.646Z,33.60
2017-07-17T09:12:51.190Z,34.40
2017-07-17T09:15:18.779Z,34.50
2017-07-17T09:17:46.368Z,35.00
2017-07-17T09:20:13.922Z,35.30
2017-07-17T09:22:41.490Z,34.70
2017-07-17T09:25:09.211Z,34.70
2017-07-17T09:27:36.775Z,33.70
2017-07-17T09:30:05.217Z,34.50
2017-07-17T09:32:32.797Z,34.40
2017-07-17T09:35:00.477Z,35.10
2017-07-17T09:37:28.878Z,35.20
2017-07-17T09:39:56.648Z,35.10
2017-07-17T09:42:24.207Z,34.90
2017-07-17T09:44:51.759Z,34.70
2017-07-17T09:47:19.485Z,33.80
2017-07-17T09:49:47.039Z,34.00
2017-07-17T09:52:14.729Z,32.40
2017-07-17T09:54:42.315Z,33.00
2017-07-17T09:57:10.004Z,33.20
2017-07-17T09:59:37.553Z,34.30
2017-07-17T10:02:05.097Z,34.70
2017-07-17T10:04:32.731Z,33.70
2017-07-17T10:07:00.279Z,33.40
2017-07-17T10:09:28.650Z,34.40
2017-07-17T10:11:56.962Z,34.00
2017-07-17T10:14:24.519Z,33.90
2017-07-17T10:16:52.117Z,33.20
2017-07-17T10:19:19.672Z,33.60
2017-07-17T10:21:47.221Z,34.90
2017-07-17T10:24:14.794Z,35.30
2017-07-17T10:26:42.346Z,35.70
2017-07-17T10:29:10.015Z,35.40
2017-07-17T10:31:37.559Z,35.80
2017-07-17T10:34:05.153Z,34.70
2017-07-17T10:36:33.473Z,35.50
2017-07-17T10:39:01.055Z,35.50
2017-07-17T10:41:28.596Z,35.60
2017-07-17T10:43:56.138Z,34.00
2017-07-17T10:46:23.707Z,34.50
2017-07-17T10:48:51.345Z,34.10
2017-07-17T10:51:18.939Z,34.10
2017-07-17T10:53:46.486Z,34.90
2017-07-17T10:56:14.018Z,34.60
2017-07-17T10:58:41.610Z,34.90
2017-07-17T11:01:09.153Z,34.00
2017-07-17T11:03:36.669Z,34.50
2017-07-17T11:06:05.005Z,32.40
2017-07-17T11:08:32.556Z,32.30
2017-07-17T11:11:00.942Z,31.70
2017-07-17T11:13:28.495Z,32.50
2017-07-17T11:15:56.128Z,31.00
2017-07-17T11:18:23.708Z,30.00
2017-07-17T11:20:51.268Z,29.60
2017-07-17T11:23:18.815Z,31.90
2017-07-17T11:25:46.484Z,32.60
2017-07-17T11:28:14.041Z,32.50
2017-07-17T11:30:41.625Z,32.80
2017-07-17T11:33:09.171Z,31.90
2017-07-17T11:35:36.755Z,30.40
2017-07-17T11:38:05.116Z,28.70
2017-07-17T11:40:32.659Z,28.70
2017-07-17T11:43:00.202Z,28.30
2017-07-17T11:45:27.782Z,28.50
2017-07-17T12:00:28.799Z,29.30
2017-07-17T12:02:56.400Z,29.00
2017-07-17T12:07:51.535Z,27.70
2017-07-17T12:10:19.251Z,27.60
2017-07-17T12:12:46.800Z,27.50
2017-07-17T12:15:14.354Z,27.80
2017-07-17T12:17:41.907Z,28.00
2017-07-17T12:20:09.476Z,28.00
2017-07-17T12:22:37.029Z,27.90
2017-07-17T12:25:04.615Z,27.80
2017-07-17T12:27:32.932Z,28.30
2017-07-17T12:30:00.481Z,28.30
2017-07-17T12:32:28.061Z,28.30
2017-07-17T12:34:55.605Z,28.40
2017-07-17T12:37:23.159Z,28.70
2017-07-17T12:39:50.750Z,29.00
2017-07-17T12:42:18.305Z,28.90
2017-07-17T12:44:45.881Z,28.60
2017-07-17T12:47:13.432Z,28.70
2017-07-17T12:49:40.986Z,28.70
2017-07-17T12:52:08.560Z,28.80
2017-07-17T12:54:36.867Z,28.30
2017-07-17T12:57:04.428Z,28.20
2017-07-17T12:59:32.006Z,28.60
2017-07-17T13:01:59.567Z,28.40
2017-07-17T13:04:27.146Z,28.00
2017-07-17T13:06:54.690Z,28.40
2017-07-17T13:09:22.233Z,28.30
2017-07-17T13:11:49.819Z,28.40
2017-07-17T13:14:17.497Z,28.20
2017-07-17T13:16:45.046Z,28.40
2017-07-17T13:19:12.656Z,28.60
2017-07-17T13:21:40.326Z,28.60
2017-07-17T13:24:07.854Z,28.30
2017-07-17T13:26:35.399Z,28.20
2017-07-17T13:29:03.779Z,29.20
2017-07-17T13:31:32.093Z,29.60
2017-07-17T13:33:59.647Z,29.60
2017-07-17T13:36:27.248Z,29.40
2017-07-17T13:38:54.861Z,29.40
2017-07-17T13:41:22.523Z,29.50
2017-07-17T13:43:50.112Z,29.20
2017-07-17T13:46:17.660Z,28.60
2017-07-17T13:48:45.384Z,28.60
2017-07-17T13:51:12.974Z,28.80
2017-07-17T13:53:40.509Z,28.60
2017-07-17T13:56:08.108Z,28.80
2017-07-17T13:58:35.655Z,29.20
2017-07-17T14:01:03.253Z,29.00
2017-07-17T14:03:30.790Z,28.80
2017-07-17T14:05:58.356Z,28.70
2017-07-17T14:08:25.940Z,28.90
2017-07-17T14:10:53.499Z,29.10
2017-07-17T14:13:21.813Z,29.00
2017-07-17T14:15:49.386Z,29.00
2017-07-17T14:18:16.991Z,28.70
2017-07-17T14:20:45.317Z,28.90
2017-07-17T14:23:12.881Z,28.90
2017-07-17T14:25:40.433Z,28.70
2017-07-17T14:28:07.986Z,28.70
2017-07-17T14:30:35.760Z,28.60
2017-07-17T14:33:03.317Z,28.50
2017-07-17T14:35:33.942Z,28.40
2017-07-17T14:38:01.493Z,28.40
2017-07-17T14:40:29.087Z,28.40
2017-07-17T14:42:56.680Z,28.50
2017-07-17T14:45:25.077Z,28.40
2017-07-17T14:47:52.630Z,28.40
2017-07-17T14:50:20.231Z,28.30
2017-07-17T14:52:47.914Z,28.80
2017-07-17T14:55:16.316Z,28.00
2017-07-17T14:57:43.897Z,27.90
2017-07-17T15:00:11.518Z,27.80
2017-07-17T15:02:39.837Z,27.60
2017-07-17T15:05:07.420Z,27.50
2017-07-17T15:07:34.958Z,27.30
2017-07-17T15:10:02.520Z,27.50
2017-07-17T15:12:30.115Z,27.50
2017-07-17T15:14:57.663Z,27.60
2017-07-17T15:17:25.278Z,27.90
2017-07-17T15:19:52.867Z,27.80
2017-07-17T15:22:20.417Z,27.80
2017-07-17T15:24:48.055Z,27.60
2017-07-17T15:27:15.739Z,28.00
2017-07-17T15:29:43.274Z,28.20
2017-07-17T15:32:10.844Z,28.40
2017-07-17T15:34:38.509Z,28.40
2017-07-17T15:37:06.061Z,28.30
2017-07-17T15:39:33.658Z,28.40
2017-07-17T15:42:01.237Z,28.40
2017-07-17T15:44:29.551Z,28.50
2017-07-17T15:46:57.147Z,28.50
2017-07-17T16:30:53.593Z,27.70
2017-07-17T16:33:21.189Z,27.70
2017-07-17T16:35:48.771Z,27.60
2017-07-17T16:38:17.127Z,27.90
2017-07-17T16:40:44.712Z,27.80
2017-07-17T16:43:13.030Z,27.80
2017-07-17T16:45:40.573Z,27.80
2017-07-17T16:48:08.204Z,27.80
2017-07-17T16:50:36.543Z,27.70
2017-07-17T16:53:04.169Z,27.70
2017-07-17T16:55:31.724Z,27.70
2017-07-17T16:57:59.307Z,27.50
2017-07-17T17:00:26.890Z,27.50
2017-07-17T17:02:54.420Z,27.50
2017-07-17T17:05:21.995Z,27.30
2017-07-17T17:07:49.614Z,27.20
2017-07-17T17:10:17.172Z,27.10
2017-07-17T17:12:44.771Z,27.00
2017-07-17T17:15:12.367Z,26.90
2017-07-17T17:17:39.949Z,26.90
2017-07-17T17:20:07.554Z,26.80
2017-07-17T17:22:35.114Z,26.70
2017-07-17T17:25:02.657Z,26.60
2017-07-17T17:27:30.239Z,26.60
2017-07-17T17:29:57.789Z,26.50
2017-07-17T17:32:25.359Z,26.50
2017-07-17T17:34:53.815Z,26.60
2017-07-17T17:37:21.368Z,26.60
2017-07-17T17:39:48.941Z,26.60
2017-07-17T17:42:16.496Z,26.50
2017-07-17T17:44:44.192Z,26.50
2017-07-17T17:47:11.788Z,26.60
2017-07-17T17:49:39.328Z,26.60
2017-07-17T17:52:06.959Z,26.60
2017-07-17T17:54:35.278Z,26.40
2017-07-17T17:57:02.858Z,26.40
2017-07-17T17:59:30.422Z,24.00
2017-07-17T18:01:58.009Z,26.30
2017-07-17T18:04:26.383Z,26.20
2017-07-17T18:06:54.696Z,26.20
2017-07-17T18:09:22.343Z,26.20
2017-07-17T18:11:49.924Z,26.20
2017-07-17T18:14:17.469Z,26.20
2017-07-17T18:16:45.075Z,26.10
2017-07-17T18:19:12.702Z,26.00
2017-07-17T18:21:40.244Z,26.00
2017-07-17T18:24:07.845Z,25.90
2017-07-17T18:26:35.387Z,25.80
2017-07-17T18:29:02.958Z,25.80
2017-07-17T18:31:30.528Z,25.80
2017-07-17T18:33:58.077Z,25.80
2017-07-17T18:36:25.655Z,25.80
2017-07-17T18:38:53.971Z,25.70
2017-07-17T18:41:21.587Z,25.70
2017-07-17T18:43:49.158Z,25.70
2017-07-17T18:46:16.714Z,25.60
2017-07-17T18:48:45.060Z,25.50
2017-07-17T18:51:12.610Z,25.50
2017-07-17T18:53:40.151Z,25.40
2017-07-17T18:56:07.813Z,25.40
2017-07-17T18:58:35.361Z,25.20
2017-07-17T19:01:02.902Z,25.10
2017-07-17T19:03:30.506Z,25.10
2017-07-17T19:05:58.064Z,25.10
2017-07-17T19:08:25.627Z,25.00
2017-07-17T19:10:53.226Z,24.90
2017-07-17T19:13:20.789Z,24.90
2017-07-17T19:15:48.364Z,24.80
2017-07-17T19:18:15.906Z,24.80
2017-07-17T19:20:43.423Z,24.70
2017-07-17T19:23:11.029Z,24.70
2017-07-17T19:25:38.579Z,24.50
2017-07-17T19:28:06.313Z,24.50
2017-07-17T19:30:33.901Z,24.40
2017-07-17T19:33:01.457Z,24.40
2017-07-17T19:35:28.998Z,24.40
2017-07-17T19:37:57.363Z,24.20
2017-07-17T19:40:24.918Z,24.20
2017-07-17T19:42:53.310Z,24.00
2017-07-17T19:45:21.639Z,24.00
2017-07-17T19:47:49.201Z,24.00
2017-07-17T19:50:16.776Z,23.90
2017-07-17T19:52:44.339Z,23.90
2017-07-17T19:55:11.915Z,23.80
2017-07-17T19:57:40.228Z,23.70
2017-07-17T20:00:07.798Z,23.70
2017-07-17T20:02:35.353Z,23.60
2017-07-17T20:05:02.901Z,23.60
2017-07-17T20:07:30.497Z,23.60
2017-07-17T20:09:58.088Z,23.60
2017-07-17T20:12:26.704Z,23.40
2017-07-17T20:14:54.290Z,23.40
2017-07-17T20:17:21.942Z,23.30
2017-07-17T20:19:49.483Z,23.40
2017-07-17T20:22:17.098Z,23.30
2017-07-17T20:24:44.629Z,23.20
2017-07-17T20:27:12.208Z,23.20
2017-07-17T20:29:39.782Z,23.10
2017-07-17T20:32:08.218Z,23.00
2017-07-17T20:34:35.822Z,23.00
2017-07-17T20:37:04.162Z,23.30
2017-07-17T20:39:31.735Z,23.20
2017-07-17T20:41:59.439Z,23.20
2017-07-17T20:44:26.971Z,23.20
2017-07-17T20:46:54.594Z,23.10
2017-07-17T20:49:22.195Z,23.00
2017-07-17T20:51:50.512Z,23.10
2017-07-17T20:54:18.111Z,23.10
2017-07-17T20:56:45.671Z,23.10
2017-07-17T20:59:13.986Z,23.00
2017-07-17T21:01:41.574Z,22.90
2017-07-17T21:04:09.132Z,22.90
2017-07-17T21:06:36.682Z,22.80
2017-07-17T21:09:04.271Z,22.90
2017-07-17T21:11:31.817Z,23.10
2017-07-17T21:13:59.402Z,23.00
2017-07-17T21:16:27.734Z,22.90
2017-07-17T21:18:55.288Z,22.80
2017-07-17T21:21:22.863Z,22.80
2017-07-17T21:23:50.404Z,22.70
2017-07-17T21:26:18.054Z,22.70
2017-07-17T21:28:45.764Z,22.70
2017-07-17T21:31:13.301Z,22.70
2017-07-17T21:33:40.850Z,22.70
2017-07-17T21:36:08.528Z,22.80
2017-07-17T21:38:36.086Z,22.60
2017-07-17T21:41:03.631Z,22.60
2017-07-17T21:43:31.227Z,22.60
2017-07-17T21:45:59.580Z,22.30
2017-07-17T21:48:27.199Z,22.20
2017-07-17T21:50:54.806Z,22.30
2017-07-17T21:53:22.385Z,22.20
2017-07-17T21:55:50.758Z,22.30
2017-07-17T21:58:18.315Z,22.20
2017-07-17T22:00:46.644Z,22.10
2017-07-17T22:03:14.229Z,22.00
2017-07-17T22:05:41.782Z,22.00
2017-07-17T22:08:09.359Z,22.10
2017-07-17T22:10:37.678Z,22.00
2017-07-17T22:13:05.402Z,22.00
2017-07-17T22:15:33.746Z,21.90
2017-07-17T22:18:01.315Z,21.90
2017-07-17T22:20:28.861Z,21.90
2017-07-17T22:22:56.438Z,21.90
2017-07-17T22:25:23.973Z,22.00
2017-07-17T22:27:51.580Z,22.30
2017-07-17T22:30:19.876Z,22.40
2017-07-17T22:32:47.486Z,22.40
2017-07-17T22:35:15.069Z,22.30
2017-07-17T22:37:43.457Z,22.10
2017-07-17T22:40:10.999Z,22.10
2017-07-17T22:42:39.362Z,22.00
2017-07-17T22:45:06.898Z,22.00
2017-07-17T22:47:34.487Z,21.90
2017-07-17T22:50:02.795Z,22.00
2017-07-17T22:52:30.349Z,22.00
2017-07-17T22:54:57.968Z,21.90
2017-07-17T22:57:25.574Z,21.90
2017-07-17T22:59:53.122Z,21.90
2017-07-17T23:02:20.881Z,21.90
2017-07-17T23:04:48.429Z,21.70
2017-07-17T23:07:16.736Z,21.60
2017-07-17T23:09:44.406Z,21.60
2017-07-17T23:12:11.945Z,21.50
2017-07-17T23:14:39.529Z,21.50
2017-07-17T23:17:07.173Z,21.40
2017-07-17T23:19:34.761Z,21.40
2017-07-17T23:22:02.441Z,21.30
2017-07-17T23:24:30.141Z,21.20
2017-07-17T23:26:57.762Z,21.20
2017-07-17T23:29:25.371Z,21.20
2017-07-17T23:31:52.921Z,21.20
2017-07-17T23:34:20.500Z,21.20
2017-07-17T23:36:48.066Z,21.10
2017-07-17T23:39:15.784Z,21.10
2017-07-17T23:41:44.207Z,20.90
2017-07-17T23:44:11.822Z,20.90
2017-07-17T23:46:39.424Z,20.90
2017-07-17T23:49:06.977Z,21.00
2017-07-17T23:51:34.558Z,21.00
2017-07-17T23:54:02.173Z,21.00
2017-07-17T23:56:29.718Z,20.90
2017-07-17T23:58:57.313Z,20.90
